Ramsay, Montana
Current Conditions -  °F | °C
As of 8:53 AM on Wednesday 28 Jan 2015 (Local Time) from KBTM Reporting Station
Clear Clear  
Wind Chill: 34°   Ceiling: Unl
Heat Index: 34°   Visibility: 10mi
Dew Point: 27°   Wind: 3mph
Humidity: 75%   Direction: 10°N
Pressure: 30.22"   Gusts: NA
Location:  46°N, 112.68°W
Report Text: KBTM 281553Z AUTO 01003KT 10SM CLR 01/M03 A3022 RMK AO2 SLP256 T00111028
Loading
Personal Weather Stations






























Interactive Weather Map New forecast layout! Learn more

10-Day Weather Forecast

Advertisements
Track Severe Weather on mobile